sensor_id;sensor_type;location;lat;lon;timestamp;P1;durP1;ratioP1;P2;durP2;ratioP2
63112;SDS011;49206;48.020;21.378;2022-08-07T00:06:55;2.65;;;2.45;;
63112;SDS011;49206;48.020;21.378;2022-08-07T00:17:03;2.40;;;2.20;;
63112;SDS011;49206;48.020;21.378;2022-08-07T00:27:07;2.83;;;2.38;;
63112;SDS011;49206;48.020;21.378;2022-08-07T00:37:11;5.28;;;2.80;;
63112;SDS011;49206;48.020;21.378;2022-08-07T00:47:15;2.72;;;2.40;;
63112;SDS011;49206;48.020;21.378;2022-08-07T00:57:37;2.38;;;2.20;;
63112;SDS011;49206;48.020;21.378;2022-08-07T01:07:56;2.35;;;2.10;;
63112;SDS011;49206;48.020;21.378;2022-08-07T01:17:58;2.80;;;2.60;;
63112;SDS011;49206;48.020;21.378;2022-08-07T01:28:02;2.22;;;2.03;;
63112;SDS011;49206;48.020;21.378;2022-08-07T01:38:05;2.60;;;2.40;;
63112;SDS011;49206;48.020;21.378;2022-08-07T01:48:14;2.65;;;2.20;;
63112;SDS011;49206;48.020;21.378;2022-08-07T01:58:33;3.13;;;2.17;;
63112;SDS011;49206;48.020;21.378;2022-08-07T02:08:42;2.33;;;2.13;;
63112;SDS011;49206;48.020;21.378;2022-08-07T02:18:58;1.90;;;1.80;;
63112;SDS011;49206;48.020;21.378;2022-08-07T02:29:23;2.50;;;1.95;;
63112;SDS011;49206;48.020;21.378;2022-08-07T02:39:27;1.85;;;1.75;;
63112;SDS011;49206;48.020;21.378;2022-08-07T02:49:53;2.13;;;1.92;;
63112;SDS011;49206;48.020;21.378;2022-08-07T03:00:05;1.85;;;1.75;;
63112;SDS011;49206;48.020;21.378;2022-08-07T03:10:13;1.77;;;1.67;;
63112;SDS011;49206;48.020;21.378;2022-08-07T03:20:18;2.08;;;1.67;;
63112;SDS011;49206;48.020;21.378;2022-08-07T03:30:21;2.55;;;1.73;;
63112;SDS011;49206;48.020;21.378;2022-08-07T03:40:27;2.50;;;2.30;;
63112;SDS011;49206;48.020;21.378;2022-08-07T03:50:42;1.48;;;1.38;;
63112;SDS011;49206;48.020;21.378;2022-08-07T04:01:01;1.95;;;1.30;;
63112;SDS011;49206;48.020;21.378;2022-08-07T04:11:10;2.65;;;1.48;;
63112;SDS011;49206;48.020;21.378;2022-08-07T04:21:32;1.30;;;1.20;;
63112;SDS011;49206;48.020;21.378;2022-08-07T04:31:37;1.33;;;1.25;;
63112;SDS011;49206;48.020;21.378;2022-08-07T04:42:01;5.13;;;2.08;;
63112;SDS011;49206;48.020;21.378;2022-08-07T04:52:25;2.00;;;1.30;;
63112;SDS011;49206;48.020;21.378;2022-08-07T05:13:38;3.50;;;2.05;;
63112;SDS011;49206;48.020;21.378;2022-08-07T05:24:09;2.17;;;1.73;;
63112;SDS011;49206;48.020;21.378;2022-08-07T05:34:17;2.80;;;2.28;;
63112;SDS011;49206;48.020;21.378;2022-08-07T05:44:29;3.28;;;2.33;;
63112;SDS011;49206;48.020;21.378;2022-08-07T05:54:35;2.80;;;2.28;;
63112;SDS011;49206;48.020;21.378;2022-08-07T06:04:58;2.45;;;1.73;;
63112;SDS011;49206;48.020;21.378;2022-08-07T06:15:06;3.00;;;1.90;;
63112;SDS011;49206;48.020;21.378;2022-08-07T06:25:17;2.40;;;2.20;;
63112;SDS011;49206;48.020;21.378;2022-08-07T06:35:20;2.67;;;2.30;;
63112;SDS011;49206;48.020;21.378;2022-08-07T06:45:24;1.95;;;1.48;;
63112;SDS011;49206;48.020;21.378;2022-08-07T06:55:31;2.35;;;1.40;;
63112;SDS011;49206;48.020;21.378;2022-08-07T07:05:57;2.33;;;1.70;;
63112;SDS011;49206;48.020;21.378;2022-08-07T07:16:13;2.03;;;1.67;;
63112;SDS011;49206;48.020;21.378;2022-08-07T07:26:21;1.45;;;1.40;;
63112;SDS011;49206;48.020;21.378;2022-08-07T07:36:38;3.03;;;1.35;;
63112;SDS011;49206;48.020;21.378;2022-08-07T07:46:50;1.50;;;1.30;;
63112;SDS011;49206;48.020;21.378;2022-08-07T07:57:02;4.82;;;1.45;;
63112;SDS011;49206;48.020;21.378;2022-08-07T08:07:10;2.78;;;1.67;;
63112;SDS011;49206;48.020;21.378;2022-08-07T08:17:20;2.17;;;1.60;;
63112;SDS011;49206;48.020;21.378;2022-08-07T08:27:46;2.78;;;1.05;;
63112;SDS011;49206;48.020;21.378;2022-08-07T08:37:58;3.95;;;1.40;;
63112;SDS011;49206;48.020;21.378;2022-08-07T09:19:56;1.85;;;0.80;;
63112;SDS011;49206;48.020;21.378;2022-08-07T10:44:21;1.13;;;0.80;;
63112;SDS011;49206;48.020;21.378;2022-08-07T10:54:42;2.10;;;1.00;;
63112;SDS011;49206;48.020;21.378;2022-08-07T11:15:51;1.42;;;1.10;;
63112;SDS011;49206;48.020;21.378;2022-08-07T11:26:04;0.98;;;0.98;;
63112;SDS011;49206;48.020;21.378;2022-08-07T12:07:18;2.28;;;1.67;;
63112;SDS011;49206;48.020;21.378;2022-08-07T12:17:39;0.98;;;0.98;;
63112;SDS011;49206;48.020;21.378;2022-08-07T12:28:04;1.55;;;1.45;;
63112;SDS011;49206;48.020;21.378;2022-08-07T12:38:25;1.48;;;1.25;;
63112;SDS011;49206;48.020;21.378;2022-08-07T12:58:55;1.40;;;1.30;;
63112;SDS011;49206;48.020;21.378;2022-08-07T13:09:10;1.85;;;1.20;;
63112;SDS011;49206;48.020;21.378;2022-08-07T13:19:41;2.88;;;1.67;;
63112;SDS011;49206;48.020;21.378;2022-08-07T13:40:33;2.30;;;1.40;;
63112;SDS011;49206;48.020;21.378;2022-08-07T13:50:44;3.80;;;1.40;;
63112;SDS011;49206;48.020;21.378;2022-08-07T14:01:11;1.13;;;1.02;;
63112;SDS011;49206;48.020;21.378;2022-08-07T14:11:21;1.95;;;1.02;;
63112;SDS011;49206;48.020;21.378;2022-08-07T14:21:39;1.13;;;1.08;;
63112;SDS011;49206;48.020;21.378;2022-08-07T14:32:15;1.50;;;1.40;;
63112;SDS011;49206;48.020;21.378;2022-08-07T14:42:25;3.15;;;1.10;;
63112;SDS011;49206;48.020;21.378;2022-08-07T14:52:35;1.48;;;1.15;;
63112;SDS011;49206;48.020;21.378;2022-08-07T15:02:41;2.33;;;1.27;;
63112;SDS011;49206;48.020;21.378;2022-08-07T15:12:58;1.65;;;1.48;;
63112;SDS011;49206;48.020;21.378;2022-08-07T15:23:11;4.85;;;1.30;;
63112;SDS011;49206;48.020;21.378;2022-08-07T15:33:41;1.42;;;1.33;;
63112;SDS011;49206;48.020;21.378;2022-08-07T15:43:44;2.03;;;1.33;;
63112;SDS011;49206;48.020;21.378;2022-08-07T15:54:01;1.60;;;1.50;;
63112;SDS011;49206;48.020;21.378;2022-08-07T16:04:12;1.00;;;1.00;;
63112;SDS011;49206;48.020;21.378;2022-08-07T16:14:19;2.03;;;1.40;;
63112;SDS011;49206;48.020;21.378;2022-08-07T16:24:31;2.05;;;1.55;;
63112;SDS011;49206;48.020;21.378;2022-08-07T16:34:58;4.50;;;1.63;;
63112;SDS011;49206;48.020;21.378;2022-08-07T17:06:30;3.67;;;1.20;;
63112;SDS011;49206;48.020;21.378;2022-08-07T17:17:05;1.27;;;1.17;;
63112;SDS011;49206;48.020;21.378;2022-08-07T17:28:07;1.52;;;1.40;;
63112;SDS011;49206;48.020;21.378;2022-08-07T17:38:01;2.15;;;1.23;;
63112;SDS011;49206;48.020;21.378;2022-08-07T17:48:30;1.45;;;1.20;;
63112;SDS011;49206;48.020;21.378;2022-08-07T18:08:58;1.10;;;1.10;;
63112;SDS011;49206;48.020;21.378;2022-08-07T18:50:52;1.10;;;1.00;;
63112;SDS011;49206;48.020;21.378;2022-08-07T19:22:20;1.73;;;0.98;;
63112;SDS011;49206;48.020;21.378;2022-08-07T19:32:32;1.98;;;1.23;;
63112;SDS011;49206;48.020;21.378;2022-08-07T19:42:47;1.85;;;1.00;;
63112;SDS011;49206;48.020;21.378;2022-08-07T19:52:50;1.02;;;1.00;;
63112;SDS011;49206;48.020;21.378;2022-08-07T20:03:04;1.35;;;1.25;;
63112;SDS011;49206;48.020;21.378;2022-08-07T20:13:39;1.73;;;1.25;;
63112;SDS011;49206;48.020;21.378;2022-08-07T20:23:43;1.67;;;1.17;;
63112;SDS011;49206;48.020;21.378;2022-08-07T20:33:56;1.40;;;1.20;;
63112;SDS011;49206;48.020;21.378;2022-08-07T20:44:03;1.33;;;1.10;;
63112;SDS011;49206;48.020;21.378;2022-08-07T20:54:14;1.85;;;0.93;;
63112;SDS011;49206;48.020;21.378;2022-08-07T21:04:32;1.55;;;1.20;;
63112;SDS011;49206;48.020;21.378;2022-08-07T21:14:37;1.83;;;1.10;;
63112;SDS011;49206;48.020;21.378;2022-08-07T21:25:01;1.02;;;0.93;;
63112;SDS011;49206;48.020;21.378;2022-08-07T21:35:21;2.40;;;0.98;;
63112;SDS011;49206;48.020;21.378;2022-08-07T21:46:01;0.98;;;0.98;;
63112;SDS011;49206;48.020;21.378;2022-08-07T21:56:48;0.82;;;0.82;;
63112;SDS011;49206;48.020;21.378;2022-08-07T22:07:11;1.98;;;1.05;;
63112;SDS011;49206;48.020;21.378;2022-08-07T22:17:24;7.82;;;1.33;;
63112;SDS011;49206;48.020;21.378;2022-08-07T22:38:13;0.90;;;0.90;;
63112;SDS011;49206;48.020;21.378;2022-08-07T22:59:15;0.73;;;0.73;;
63112;SDS011;49206;48.020;21.378;2022-08-07T23:09:42;2.42;;;1.38;;
63112;SDS011;49206;48.020;21.378;2022-08-07T23:31:37;1.25;;;1.10;;
63112;SDS011;49206;48.020;21.378;2022-08-07T23:42:17;1.90;;;1.10;;
